Oberon — SKJF — position and weather

sailwx.info

Track history (hours):
 
Tides and Currents Weather Stations Pressure Air Temp Water Temp Dewpoint Dewpoint Depression Visibility Wind Speed Wind Dir Waves Ship Positions

Oberon

Last reported at 2014-Sep-18 14:33 UTC. Time now 2014-Sep-19 19:55 UTC.
Position S 33°17' E 152°06'.

Length 232 m; draft 9.4 m.

Type: Cargo ship. MMSI: 266283000.

Date/timePositionNaut miles runAvg speedWind from/ knotsBaromVisibWave heightAir tempDewpointWater temp
2014-Sep-18 14:33S 33°17' E 152°06'1717.2
2014-Sep-18 13:33S 33°03' E 152°18'1716.9
2014-Sep-18 12:33S 32°51' E 152°32'1716.8
2014-Sep-18 11:33S 32°38' E 152°44'26616.6
2014-Sep-17 19:33S 28°17' E 153°49'1817.5
2014-Sep-17 18:33S 28°00' E 153°47'1818.2
2014-Sep-17 17:33S 27°42' E 153°44'1919.0
2014-Sep-17 16:33S 27°23' E 153°40'1818.2
2014-Sep-17 15:33S 27°05' E 153°38'1717.1
2014-Sep-17 14:33S 26°50' E 153°29'1616.5
2014-Sep-17 13:34S 26°42' E 153°13'1211.6
2014-Sep-17 12:33S 26°54' E 153°11'1716.7
2014-Sep-17 11:33S 27°08' E 153°21'1010.1
2014-Sep-17 10:33S 27°17' E 153°16'7 6.8
2014-Sep-17 09:33S 27°22' E 153°10'1 1.1
2014-Sep-17 08:33S 27°23' E 153°10'0 0.0
2014-Sep-17 07:33S 27°23' E 153°10'0 0.0
2014-Sep-17 06:33S 27°23' E 153°10'0 0.0
2014-Sep-17 05:33S 27°23' E 153°10'0 0.0
2014-Sep-17 04:33S 27°23' E 153°10'0 0.0
2014-Sep-17 03:33S 27°23' E 153°10'0 0.0
2014-Sep-17 02:33S 27°23' E 153°10'0 0.0
2014-Sep-17 01:27S 27°23' E 153°10'0 0.0
2014-Sep-17 00:30S 27°23' E 153°10'0 0.0
2014-Sep-16 23:33S 27°23' E 153°10'0 0.0
2014-Sep-16 22:33S 27°23' E 153°10'0 0.0
2014-Sep-16 21:33S 27°23' E 153°10'0 0.0
2014-Sep-16 20:33S 27°23' E 153°10'0 0.1
2014-Sep-16 19:34S 27°23' E 153°10'7 6.9
2014-Sep-16 18:34S 27°17' E 153°14'1313.4
2014-Sep-16 17:33S 27°04' E 153°18'1616.2
2014-Sep-16 16:34S 26°50' E 153°09'9 8.7
2014-Sep-16 15:33S 26°43' E 153°15'1515.4
2014-Sep-16 14:33S 26°49' E 153°31'1515.3
2014-Sep-16 13:33S 26°57' E 153°46'1414.3
2014-Sep-16 12:33S 27°02' E 154°00'1514.9
2014-Sep-16 11:33S 27°08' E 154°16'1615.9
2014-Sep-16 10:33S 27°14' E 154°32'1616.0
2014-Sep-16 09:33S 27°21' E 154°49'1616.3
2014-Sep-16 08:33S 27°27' E 155°06'1716.6
2014-Sep-16 07:33S 27°34' E 155°23'1615.9
2014-Sep-16 06:33S 27°40' E 155°39'1716.6
2014-Sep-16 05:33S 27°47' E 155°56'1716.6
2014-Sep-16 04:33S 27°53' E 156°14'1716.5
2014-Sep-16 03:33S 28°00' E 156°31'7216.8
2014-Sep-15 23:17S 28°29' E 157°45'  
2014-Sep-13 12:32S 36°05' E 174°57'1413.8
2014-Sep-13 11:33S 36°19' E 174°58'10 9.9
2014-Sep-13 10:33S 36°29' E 174°60'10 9.7
2014-Sep-13 09:33S 36°38' E 174°57'10 9.6
2014-Sep-13 08:33S 36°46' E 174°49'5 5.4
2014-Sep-13 07:33S 36°50' E 174°46'0 0.0
2014-Sep-13 06:29S 36°50' E 174°46'0 0.0
2014-Sep-13 05:29S 36°50' E 174°46'0 0.0
2014-Sep-13 04:29S 36°50' E 174°46'0 0.0
2014-Sep-13 03:29S 36°50' E 174°46'0 0.0
2014-Sep-13 02:29S 36°50' E 174°46'0 0.0
2014-Sep-13 01:29S 36°50' E 174°46'0 0.0
2014-Sep-13 00:29S 36°50' E 174°46'0 0.0
2014-Sep-12 23:17S 36°50' E 174°46'0 0.0
2014-Sep-12 22:29S 36°50' E 174°46'0 0.0
2014-Sep-12 21:29S 36°50' E 174°46'0 0.0
2014-Sep-12 20:29S 36°50' E 174°46'0 0.0
2014-Sep-12 19:29S 36°50' E 174°46'2 2.0
2014-Sep-12 18:33S 36°50' E 174°49'8 8.3
2014-Sep-12 17:33S 36°42' E 174°52'7 6.8
2014-Sep-12 16:33S 36°37' E 174°58'8 8.1
2014-Sep-12 15:34S 36°32' E 175°05'9 8.8
2014-Sep-12 14:33S 36°26' E 175°13'9 8.5
2014-Sep-12 13:33S 36°22' E 175°23'  
Track history (hours):
 
Tides and Currents Weather Stations Pressure Air Temp Water Temp Dewpoint Dewpoint Depression Visibility Wind Speed Wind Dir Waves Ship Positions

Oberon

Last reported at 2014-Sep-18 14:33 UTC. Time now 2014-Sep-19 19:55 UTC.
Position S 33°17' E 152°06'.

Length 232 m; draft 9.4 m.

Type: Cargo ship. MMSI: 266283000.

Date/timePositionNaut miles runAvg speedWind from/ knotsBaromVisibWave heightAir tempDewpointWater temp
2014-Sep-18 14:33S 33°17' E 152°06'1717.2
2014-Sep-18 13:33S 33°03' E 152°18'1716.9
2014-Sep-18 12:33S 32°51' E 152°32'1716.8
2014-Sep-18 11:33S 32°38' E 152°44'26616.6
2014-Sep-17 19:33S 28°17' E 153°49'1817.5
2014-Sep-17 18:33S 28°00' E 153°47'1818.2
2014-Sep-17 17:33S 27°42' E 153°44'1919.0
2014-Sep-17 16:33S 27°23' E 153°40'1818.2
2014-Sep-17 15:33S 27°05' E 153°38'1717.1
2014-Sep-17 14:33S 26°50' E 153°29'1616.5
2014-Sep-17 13:34S 26°42' E 153°13'1211.6
2014-Sep-17 12:33S 26°54' E 153°11'1716.7
2014-Sep-17 11:33S 27°08' E 153°21'1010.1
2014-Sep-17 10:33S 27°17' E 153°16'7 6.8
2014-Sep-17 09:33S 27°22' E 153°10'1 1.1
2014-Sep-17 08:33S 27°23' E 153°10'0 0.0
2014-Sep-17 07:33S 27°23' E 153°10'0 0.0
2014-Sep-17 06:33S 27°23' E 153°10'0 0.0
2014-Sep-17 05:33S 27°23' E 153°10'0 0.0
2014-Sep-17 04:33S 27°23' E 153°10'0 0.0
2014-Sep-17 03:33S 27°23' E 153°10'0 0.0
2014-Sep-17 02:33S 27°23' E 153°10'0 0.0
2014-Sep-17 01:27S 27°23' E 153°10'0 0.0
2014-Sep-17 00:30S 27°23' E 153°10'0 0.0
2014-Sep-16 23:33S 27°23' E 153°10'0 0.0
2014-Sep-16 22:33S 27°23' E 153°10'0 0.0
2014-Sep-16 21:33S 27°23' E 153°10'0 0.0
2014-Sep-16 20:33S 27°23' E 153°10'0 0.1
2014-Sep-16 19:34S 27°23' E 153°10'7 6.9
2014-Sep-16 18:34S 27°17' E 153°14'1313.4
2014-Sep-16 17:33S 27°04' E 153°18'1616.2
2014-Sep-16 16:34S 26°50' E 153°09'9 8.7
2014-Sep-16 15:33S 26°43' E 153°15'1515.4
2014-Sep-16 14:33S 26°49' E 153°31'1515.3
2014-Sep-16 13:33S 26°57' E 153°46'1414.3
2014-Sep-16 12:33S 27°02' E 154°00'1514.9
2014-Sep-16 11:33S 27°08' E 154°16'1615.9
2014-Sep-16 10:33S 27°14' E 154°32'1616.0
2014-Sep-16 09:33S 27°21' E 154°49'1616.3
2014-Sep-16 08:33S 27°27' E 155°06'1716.6
2014-Sep-16 07:33S 27°34' E 155°23'1615.9
2014-Sep-16 06:33S 27°40' E 155°39'1716.6
2014-Sep-16 05:33S 27°47' E 155°56'1716.6
2014-Sep-16 04:33S 27°53' E 156°14'1716.5
2014-Sep-16 03:33S 28°00' E 156°31'7216.8
2014-Sep-15 23:17S 28°29' E 157°45'  
2014-Sep-13 12:32S 36°05' E 174°57'1413.8
2014-Sep-13 11:33S 36°19' E 174°58'10 9.9
2014-Sep-13 10:33S 36°29' E 174°60'10 9.7
2014-Sep-13 09:33S 36°38' E 174°57'10 9.6
2014-Sep-13 08:33S 36°46' E 174°49'5 5.4
2014-Sep-13 07:33S 36°50' E 174°46'0 0.0
2014-Sep-13 06:29S 36°50' E 174°46'0 0.0
2014-Sep-13 05:29S 36°50' E 174°46'0 0.0
2014-Sep-13 04:29S 36°50' E 174°46'0 0.0
2014-Sep-13 03:29S 36°50' E 174°46'0 0.0
2014-Sep-13 02:29S 36°50' E 174°46'0 0.0
2014-Sep-13 01:29S 36°50' E 174°46'0 0.0
2014-Sep-13 00:29S 36°50' E 174°46'0 0.0
2014-Sep-12 23:17S 36°50' E 174°46'0 0.0
2014-Sep-12 22:29S 36°50' E 174°46'0 0.0
2014-Sep-12 21:29S 36°50' E 174°46'0 0.0
2014-Sep-12 20:29S 36°50' E 174°46'0 0.0
2014-Sep-12 19:29S 36°50' E 174°46'2 2.0
2014-Sep-12 18:33S 36°50' E 174°49'8 8.3
2014-Sep-12 17:33S 36°42' E 174°52'7 6.8
2014-Sep-12 16:33S 36°37' E 174°58'8 8.1
2014-Sep-12 15:34S 36°32' E 175°05'9 8.8
2014-Sep-12 14:33S 36°26' E 175°13'9 8.5
2014-Sep-12 13:33S 36°22' E 175°23'  

Dump ship's entire track history